createdAt,value
2022-12-02T00:01:22.425Z,13.60
2022-12-02T00:03:50.355Z,15.00
2022-12-02T00:06:26.106Z,15.10
2022-12-02T00:08:55.262Z,14.30
2022-12-02T00:11:28.138Z,14.30
2022-12-02T00:13:58.204Z,15.20
2022-12-02T00:16:26.651Z,15.30
2022-12-02T00:18:55.163Z,14.40
2022-12-02T00:21:22.924Z,15.70
2022-12-02T00:23:50.895Z,16.10
2022-12-02T00:26:18.615Z,16.80
2022-12-02T00:28:46.352Z,16.30
2022-12-02T00:31:14.172Z,15.70
2022-12-02T00:33:42.529Z,15.70
2022-12-02T00:36:10.935Z,16.70
2022-12-02T00:38:39.530Z,15.90
2022-12-02T00:41:07.264Z,16.80
2022-12-02T00:43:53.893Z,15.90
2022-12-02T00:46:34.956Z,16.50
2022-12-02T00:49:05.287Z,15.00
2022-12-02T00:51:33.562Z,15.50
2022-12-02T00:54:01.334Z,15.70
2022-12-02T00:56:29.499Z,16.20
2022-12-02T00:58:57.159Z,16.70
2022-12-02T01:01:25.861Z,17.60
2022-12-02T01:03:54.221Z,14.80
2022-12-02T01:06:22.024Z,10.50
2022-12-02T01:08:49.978Z,14.90
2022-12-02T01:11:18.248Z,14.40
2022-12-02T01:13:45.893Z,14.20
2022-12-02T01:16:13.537Z,15.30
2022-12-02T01:18:41.630Z,14.20
2022-12-02T01:21:09.367Z,16.10
2022-12-02T01:23:37.243Z,15.30
2022-12-02T01:26:05.156Z,16.30
2022-12-02T01:28:32.878Z,15.70
2022-12-02T01:31:00.521Z,15.90
2022-12-02T01:33:28.440Z,15.80
2022-12-02T01:35:56.074Z,15.20
2022-12-02T01:38:24.036Z,15.70
2022-12-02T01:40:51.948Z,15.30
2022-12-02T01:43:20.097Z,15.80
2022-12-02T01:45:47.827Z,15.90
2022-12-02T01:48:16.193Z,15.80
2022-12-02T01:50:44.102Z,15.90
2022-12-02T01:53:12.251Z,17.20
2022-12-02T01:55:40.121Z,14.10
2022-12-02T01:58:09.692Z,15.90
2022-12-02T02:00:38.537Z,15.90
2022-12-02T02:03:06.991Z,17.30
2022-12-02T02:05:35.060Z,17.60
2022-12-02T02:08:07.166Z,16.30
2022-12-02T02:10:35.471Z,16.20
2022-12-02T02:13:03.940Z,15.80
2022-12-02T02:15:32.258Z,16.30
2022-12-02T02:18:04.914Z,16.40
2022-12-02T02:20:33.930Z,16.60
2022-12-02T02:23:05.031Z,14.60
2022-12-02T02:25:50.039Z,16.20
2022-12-02T02:28:17.878Z,15.80
2022-12-02T02:30:45.932Z,17.30
2022-12-02T02:33:15.582Z,16.70
2022-12-02T02:35:44.425Z,15.70
2022-12-02T02:38:14.333Z,16.90
2022-12-02T02:40:42.657Z,17.10
2022-12-02T02:43:10.879Z,15.30
2022-12-02T02:45:40.263Z,16.50
2022-12-02T02:48:09.327Z,16.40
2022-12-02T02:50:38.959Z,15.90
2022-12-02T02:53:07.211Z,16.20
2022-12-02T02:55:34.972Z,16.10
2022-12-02T02:58:10.418Z,16.30
2022-12-02T03:00:38.477Z,17.50
2022-12-02T03:03:06.248Z,17.50
2022-12-02T03:05:34.743Z,16.30
2022-12-02T03:08:03.154Z,17.00
2022-12-02T03:10:31.396Z,16.90
2022-12-02T03:12:59.230Z,16.20
2022-12-02T03:15:28.751Z,15.80
2022-12-02T03:17:56.576Z,15.80
2022-12-02T03:20:25.329Z,16.40
2022-12-02T03:22:53.523Z,14.50
2022-12-02T03:25:21.232Z,16.30
2022-12-02T03:27:49.625Z,15.80
2022-12-02T03:30:18.565Z,15.50
2022-12-02T03:32:46.754Z,15.20
2022-12-02T03:35:14.666Z,15.90
2022-12-02T03:37:42.555Z,14.20
2022-12-02T03:40:10.585Z,14.90
2022-12-02T03:42:38.659Z,14.80
2022-12-02T03:45:06.864Z,16.00
2022-12-02T03:47:34.998Z,15.50
2022-12-02T03:50:04.297Z,14.80
2022-12-02T03:52:32.260Z,15.40
2022-12-02T03:55:00.524Z,15.40
2022-12-02T03:57:32.093Z,15.30
2022-12-02T04:00:00.178Z,16.50
2022-12-02T04:02:28.879Z,16.70
2022-12-02T04:04:56.888Z,14.40
2022-12-02T04:07:24.617Z,14.90
2022-12-02T04:09:52.446Z,15.10
2022-12-02T04:12:20.208Z,16.50
2022-12-02T04:14:47.978Z,16.00
2022-12-02T04:17:15.709Z,16.80
2022-12-02T04:19:43.455Z,15.40
2022-12-02T04:22:11.216Z,16.80
2022-12-02T04:24:39.180Z,16.70
2022-12-02T04:27:07.300Z,17.40
2022-12-02T04:29:35.576Z,17.20
2022-12-02T04:32:03.546Z,17.80
2022-12-02T04:34:31.309Z,17.70
2022-12-02T04:36:58.959Z,17.60
2022-12-02T04:39:26.580Z,16.90
2022-12-02T04:41:54.494Z,17.00
2022-12-02T04:44:22.378Z,16.90
2022-12-02T04:46:50.703Z,16.90
2022-12-02T04:49:18.704Z,18.20
2022-12-02T04:51:46.674Z,20.00
2022-12-02T04:54:14.338Z,19.50
2022-12-02T04:56:42.306Z,19.40
2022-12-02T04:59:09.985Z,17.40
2022-12-02T05:01:37.555Z,18.40
2022-12-02T05:04:05.396Z,16.20
2022-12-02T05:06:33.252Z,16.60
2022-12-02T05:09:00.865Z,16.80
2022-12-02T05:11:32.011Z,16.10
2022-12-02T05:14:04.125Z,16.50
2022-12-02T05:16:32.107Z,16.90
2022-12-02T05:18:59.884Z,16.30
2022-12-02T05:21:27.886Z,17.20
2022-12-02T05:23:56.402Z,14.20
2022-12-02T05:26:24.162Z,14.80
2022-12-02T05:28:51.972Z,15.00
2022-12-02T05:31:19.752Z,14.10
2022-12-02T05:33:47.530Z,12.30
2022-12-02T05:36:15.218Z,12.40
2022-12-02T05:38:42.980Z,11.70
2022-12-02T05:41:10.645Z,11.80
2022-12-02T05:43:39.844Z,11.80
2022-12-02T05:46:12.432Z,11.70
2022-12-02T05:48:40.178Z,10.60
2022-12-02T05:51:15.210Z,11.60
2022-12-02T05:53:44.110Z,11.70
2022-12-02T05:56:13.628Z,11.70
2022-12-02T05:58:42.305Z,12.50
2022-12-02T06:01:26.436Z,11.80
2022-12-02T06:03:54.842Z,11.60
2022-12-02T06:06:25.097Z,11.90
2022-12-02T06:08:54.173Z,12.00
2022-12-02T06:11:25.168Z,11.30
2022-12-02T06:13:53.507Z,12.00
2022-12-02T06:16:26.000Z,11.80
2022-12-02T06:18:54.295Z,11.50
2022-12-02T06:21:22.676Z,12.30
2022-12-02T06:23:51.604Z,12.40
2022-12-02T06:26:20.351Z,11.30
2022-12-02T06:28:50.071Z,11.30
2022-12-02T06:31:20.783Z,12.20
2022-12-02T06:33:49.623Z,11.20
2022-12-02T06:36:19.272Z,11.30
2022-12-02T06:38:46.948Z,11.90
2022-12-02T06:41:25.787Z,13.50
2022-12-02T06:44:16.885Z,13.00
2022-12-02T06:46:44.656Z,13.80
2022-12-02T06:49:23.059Z,11.90
2022-12-02T06:51:57.632Z,11.80
2022-12-02T06:54:29.745Z,11.40
2022-12-02T06:56:58.863Z,11.90
2022-12-02T06:59:27.729Z,11.70
2022-12-02T07:01:56.970Z,11.70
2022-12-02T07:04:32.371Z,11.90
2022-12-02T07:07:02.780Z,11.20
2022-12-02T07:09:53.804Z,11.80
2022-12-02T07:12:23.525Z,11.30
2022-12-02T07:14:51.921Z,10.80
2022-12-02T07:17:22.129Z,10.20
2022-12-02T07:19:55.506Z,10.80
2022-12-02T07:22:24.808Z,10.00
2022-12-02T07:24:58.041Z,12.10
2022-12-02T07:27:28.995Z,11.80
2022-12-02T07:29:57.419Z,11.80
2022-12-02T07:32:25.356Z,10.80
2022-12-02T07:34:53.699Z,11.70
2022-12-02T07:37:21.615Z,13.00
2022-12-02T07:39:49.580Z,12.50
2022-12-02T07:42:17.461Z,12.10
2022-12-02T07:44:45.532Z,10.90
2022-12-02T07:47:13.297Z,12.60
2022-12-02T07:49:40.958Z,12.30
2022-12-02T07:52:08.870Z,13.80
2022-12-02T07:54:37.228Z,14.90
2022-12-02T07:57:04.959Z,15.60
2022-12-02T07:59:32.731Z,18.40
2022-12-02T08:02:01.434Z,14.70
2022-12-02T08:04:29.720Z,14.90
2022-12-02T08:06:57.551Z,15.00
2022-12-02T08:09:25.427Z,11.90
2022-12-02T08:11:53.586Z,14.60
2022-12-02T08:14:22.396Z,15.20
2022-12-02T08:16:51.005Z,14.80
2022-12-02T08:19:19.355Z,14.30
2022-12-02T08:21:47.225Z,15.00
2022-12-02T08:24:15.275Z,14.20
2022-12-02T08:26:45.297Z,13.80
2022-12-02T08:29:13.876Z,14.40
2022-12-02T08:31:41.576Z,16.00
2022-12-02T08:34:09.605Z,14.30
2022-12-02T08:36:37.427Z,14.10
2022-12-02T08:39:06.113Z,13.40
2022-12-02T08:41:35.149Z,14.10
2022-12-02T08:44:03.036Z,13.40
2022-12-02T08:46:31.308Z,14.30
2022-12-02T08:48:59.650Z,13.50
2022-12-02T08:51:27.755Z,14.80
2022-12-02T08:53:55.605Z,14.40
2022-12-02T08:56:23.462Z,14.40
2022-12-02T08:58:51.206Z,14.20
2022-12-02T09:01:19.669Z,14.40
2022-12-02T09:03:47.777Z,13.90
2022-12-02T09:06:15.856Z,14.70
2022-12-02T09:08:43.914Z,15.60
2022-12-02T09:11:12.015Z,14.20
2022-12-02T09:13:39.954Z,14.00
2022-12-02T09:16:08.088Z,13.40
2022-12-02T09:18:36.164Z,13.70
2022-12-02T09:21:03.871Z,15.20
2022-12-02T09:23:32.173Z,14.80
2022-12-02T09:26:00.334Z,15.30
2022-12-02T09:28:28.137Z,15.30
2022-12-02T09:30:55.871Z,16.00
2022-12-02T09:33:25.173Z,15.30
2022-12-02T09:35:55.855Z,15.10
2022-12-02T09:38:23.458Z,15.30
2022-12-02T09:40:51.403Z,16.20
2022-12-02T09:43:19.464Z,15.60
2022-12-02T09:45:47.090Z,16.30
2022-12-02T09:48:15.484Z,15.50
2022-12-02T09:50:43.593Z,16.30
2022-12-02T09:53:13.591Z,15.20
2022-12-02T09:55:41.464Z,15.60
2022-12-02T09:58:12.104Z,15.50
2022-12-02T10:00:40.182Z,16.10
2022-12-02T10:03:10.467Z,14.90
2022-12-02T10:05:42.232Z,16.20
2022-12-02T10:08:16.489Z,14.60
2022-12-02T10:10:45.337Z,16.10
2022-12-02T10:13:14.253Z,17.00
2022-12-02T10:15:42.587Z,16.60
2022-12-02T10:18:16.819Z,16.20
2022-12-02T10:20:45.083Z,14.00
2022-12-02T10:23:26.495Z,16.60
2022-12-02T10:25:58.461Z,14.90
2022-12-02T10:28:30.516Z,15.90
2022-12-02T10:31:15.775Z,14.80
2022-12-02T10:33:54.309Z,16.20
2022-12-02T10:36:31.936Z,14.60
2022-12-02T10:39:19.038Z,15.50
2022-12-02T10:41:47.589Z,15.50
2022-12-02T10:44:16.780Z,16.80
2022-12-02T10:46:49.473Z,15.90
2022-12-02T10:49:29.727Z,15.70
2022-12-02T10:51:59.922Z,15.30
2022-12-02T10:54:29.839Z,14.60
2022-12-02T10:56:58.213Z,15.60
2022-12-02T10:59:26.506Z,15.10
2022-12-02T11:01:54.940Z,15.50
2022-12-02T11:04:23.295Z,15.40
2022-12-02T11:06:51.258Z,15.20
2022-12-02T11:09:39.462Z,14.60
2022-12-02T11:12:27.830Z,14.20
2022-12-02T11:17:47.304Z,14.00
2022-12-02T11:20:35.229Z,13.80
2022-12-02T11:23:15.503Z,14.80
2022-12-02T11:25:43.532Z,14.90
2022-12-02T11:28:17.694Z,13.90
2022-12-02T11:30:46.136Z,14.50
2022-12-02T11:33:34.143Z,15.70
2022-12-02T11:36:05.242Z,15.30
2022-12-02T11:38:45.513Z,14.20
2022-12-02T11:41:14.503Z,13.80
2022-12-02T11:43:48.292Z,15.20
2022-12-02T11:46:16.634Z,16.40
2022-12-02T11:48:52.887Z,17.10
2022-12-02T11:51:39.944Z,15.30
2022-12-02T11:54:16.315Z,15.40
2022-12-02T11:56:45.606Z,16.30
2022-12-02T11:59:19.719Z,16.40
2022-12-02T12:01:48.520Z,15.70
2022-12-02T12:04:27.453Z,16.60
2022-12-02T12:06:57.243Z,34.80
2022-12-02T12:09:25.933Z,18.30
2022-12-02T12:12:06.159Z,18.00
2022-12-02T12:14:33.947Z,14.60
2022-12-02T12:17:18.383Z,15.50
2022-12-02T12:19:46.258Z,14.00
2022-12-02T12:22:27.855Z,14.00
2022-12-02T12:25:22.116Z,15.60
2022-12-02T12:27:51.310Z,15.60
2022-12-02T12:30:18.972Z,14.50
2022-12-02T12:32:46.763Z,15.90
2022-12-02T12:35:15.038Z,15.10
2022-12-02T12:37:42.747Z,15.70
2022-12-02T12:40:12.304Z,15.60
2022-12-02T12:42:40.272Z,14.10
2022-12-02T12:45:08.343Z,14.70
2022-12-02T12:47:36.262Z,15.20
2022-12-02T12:50:04.403Z,16.80
2022-12-02T12:52:32.788Z,16.00
2022-12-02T12:55:01.037Z,12.90
2022-12-02T12:57:28.899Z,15.20
2022-12-02T12:59:56.665Z,14.70
2022-12-02T13:02:24.352Z,13.30
2022-12-02T13:04:53.202Z,14.70
2022-12-02T13:07:21.299Z,13.70
2022-12-02T13:09:49.125Z,13.20
2022-12-02T13:12:17.054Z,13.90
2022-12-02T13:14:44.894Z,14.30
2022-12-02T13:17:14.095Z,14.40
2022-12-02T13:19:43.374Z,15.80
2022-12-02T13:22:11.847Z,14.80
2022-12-02T13:24:43.217Z,15.30
2022-12-02T13:27:11.462Z,13.50
2022-12-02T13:29:39.669Z,19.30
2022-12-02T13:32:07.517Z,16.10
2022-12-02T13:34:36.304Z,15.50
2022-12-02T13:37:04.066Z,14.90
2022-12-02T13:39:31.940Z,15.60
2022-12-02T13:42:00.222Z,13.20
2022-12-02T13:44:28.179Z,15.30
2022-12-02T13:46:56.346Z,17.10
2022-12-02T13:49:24.968Z,15.90
2022-12-02T13:51:53.079Z,15.90
2022-12-02T13:54:20.768Z,15.20
2022-12-02T13:56:48.851Z,15.20
2022-12-02T13:59:16.699Z,15.80
2022-12-02T14:01:44.745Z,16.80
2022-12-02T14:04:12.723Z,14.50
2022-12-02T14:06:40.704Z,16.00
2022-12-02T14:09:08.504Z,15.90
2022-12-02T14:11:36.439Z,15.50
2022-12-02T14:14:05.315Z,14.90
2022-12-02T14:16:33.552Z,15.30
2022-12-02T14:19:01.315Z,16.00
2022-12-02T14:21:29.132Z,15.30
2022-12-02T14:23:57.098Z,15.90
2022-12-02T14:26:25.169Z,13.20
2022-12-02T14:28:53.037Z,14.40
2022-12-02T14:31:26.303Z,15.10
2022-12-02T14:34:12.627Z,14.50
2022-12-02T14:36:42.234Z,13.60
2022-12-02T14:39:10.418Z,14.60
2022-12-02T14:41:38.471Z,14.80
2022-12-02T14:44:06.579Z,14.80
2022-12-02T14:46:34.600Z,12.90
2022-12-02T14:49:37.146Z,15.90
2022-12-02T14:51:50.314Z,16.30
2022-12-02T14:54:18.180Z,13.70
2022-12-02T14:56:45.943Z,14.50
2022-12-02T14:59:15.137Z,14.10
2022-12-02T15:01:43.275Z,14.90
2022-12-02T15:04:11.485Z,13.90
2022-12-02T15:06:39.591Z,15.40
2022-12-02T15:09:07.443Z,14.40
2022-12-02T15:11:36.075Z,15.00
2022-12-02T15:14:04.175Z,16.10
2022-12-02T15:16:32.219Z,16.10
2022-12-02T15:19:00.326Z,15.80
2022-12-02T15:21:28.196Z,15.40
2022-12-02T15:23:56.067Z,17.10
2022-12-02T15:26:24.077Z,16.70
2022-12-02T15:28:51.992Z,17.30
2022-12-02T15:31:20.005Z,20.20
2022-12-02T15:33:48.235Z,16.50
2022-12-02T15:36:16.714Z,18.00
2022-12-02T15:38:44.578Z,18.00
2022-12-02T15:41:13.651Z,18.90
2022-12-02T15:43:41.639Z,18.50
2022-12-02T15:46:09.402Z,18.10
2022-12-02T15:48:37.571Z,18.10
2022-12-02T15:51:05.442Z,14.80
2022-12-02T15:53:33.720Z,16.50
2022-12-02T15:56:01.677Z,14.70
2022-12-02T15:58:31.377Z,16.60
2022-12-02T16:01:03.626Z,18.00
2022-12-02T16:03:31.933Z,20.70
2022-12-02T16:06:00.003Z,17.20
2022-12-02T16:08:29.563Z,19.60
2022-12-02T16:10:58.366Z,19.50
2022-12-02T16:13:26.670Z,18.20
2022-12-02T16:15:55.474Z,16.60
2022-12-02T16:18:24.234Z,17.40
2022-12-02T16:20:55.454Z,13.50
2022-12-02T16:23:24.482Z,17.40
2022-12-02T16:25:52.417Z,18.10
2022-12-02T16:28:20.965Z,16.90
2022-12-02T16:30:48.762Z,18.10
2022-12-02T16:33:16.559Z,17.20
2022-12-02T16:35:44.838Z,16.50
2022-12-02T16:38:18.233Z,17.10
2022-12-02T16:40:47.159Z,15.60
2022-12-02T16:43:15.398Z,17.20
2022-12-02T16:45:43.397Z,19.90
2022-12-02T16:48:11.412Z,17.70
2022-12-02T16:50:39.102Z,18.10
2022-12-02T16:53:06.917Z,16.70
2022-12-02T16:55:35.048Z,15.10
2022-12-02T16:58:03.224Z,17.70
2022-12-02T17:00:32.345Z,17.70
2022-12-02T17:03:00.504Z,17.40
2022-12-02T17:05:28.549Z,19.20
2022-12-02T17:07:56.676Z,16.40
2022-12-02T17:10:25.531Z,18.00
2022-12-02T17:12:53.881Z,17.90
2022-12-02T17:15:27.593Z,20.10
2022-12-02T17:17:57.722Z,17.40
2022-12-02T17:20:26.357Z,18.00
2022-12-02T17:22:54.460Z,17.40
2022-12-02T17:25:23.665Z,19.50
2022-12-02T17:27:52.049Z,17.50
2022-12-02T17:30:20.848Z,17.90
2022-12-02T17:32:54.913Z,17.80
2022-12-02T17:35:25.801Z,18.20
2022-12-02T17:37:54.360Z,17.90
2022-12-02T17:40:22.627Z,18.40
2022-12-02T17:42:51.824Z,19.10
2022-12-02T17:45:20.205Z,18.80
2022-12-02T17:47:48.992Z,21.20
2022-12-02T17:50:18.523Z,20.10
2022-12-02T17:52:47.289Z,23.70
2022-12-02T17:55:17.778Z,18.30
2022-12-02T17:57:46.946Z,23.50
2022-12-02T18:00:15.694Z,20.50
2022-12-02T18:02:43.885Z,21.30
2022-12-02T18:05:12.338Z,21.30
2022-12-02T18:07:43.949Z,20.20
2022-12-02T18:10:14.224Z,17.20
2022-12-02T18:12:42.588Z,19.30
2022-12-02T18:15:15.893Z,17.30
2022-12-02T18:17:44.895Z,17.50
2022-12-02T18:20:12.948Z,17.50
2022-12-02T18:22:41.843Z,19.70
2022-12-02T18:25:10.026Z,16.90
2022-12-02T18:27:39.538Z,19.00
2022-12-02T18:30:13.752Z,17.30
2022-12-02T18:32:47.627Z,17.20
2022-12-02T18:35:17.036Z,17.20
2022-12-02T18:37:45.110Z,18.00
2022-12-02T18:40:17.704Z,17.00
2022-12-02T18:42:46.266Z,18.00
2022-12-02T18:45:15.845Z,16.10
2022-12-02T18:47:45.295Z,22.40
2022-12-02T18:50:15.410Z,18.30
2022-12-02T18:52:44.190Z,20.90
2022-12-02T18:55:16.555Z,19.60
2022-12-02T18:57:46.064Z,21.00
2022-12-02T19:00:16.157Z,19.90
2022-12-02T19:02:46.432Z,18.60
2022-12-02T19:05:16.819Z,20.50
2022-12-02T19:07:44.937Z,19.30
2022-12-02T19:10:12.969Z,19.60
2022-12-02T19:12:41.657Z,19.60
2022-12-02T19:15:10.647Z,17.00
2022-12-02T19:17:39.141Z,17.60
2022-12-02T19:20:08.523Z,19.20
2022-12-02T19:22:36.897Z,17.20
2022-12-02T19:25:05.893Z,16.30
2022-12-02T19:30:28.050Z,15.60
2022-12-02T19:32:57.529Z,17.20
2022-12-02T19:35:27.426Z,18.30
2022-12-02T19:38:02.682Z,17.80
2022-12-02T19:40:39.460Z,20.00
2022-12-02T19:43:14.403Z,19.30
2022-12-02T19:45:42.468Z,20.80
2022-12-02T19:48:10.854Z,19.80
2022-12-02T19:50:39.698Z,20.20
2022-12-02T19:53:08.672Z,19.80
2022-12-02T19:55:37.735Z,17.40
2022-12-02T19:58:06.217Z,18.60
2022-12-02T20:00:35.894Z,19.50
2022-12-02T20:03:04.435Z,19.20
2022-12-02T20:05:35.602Z,17.70
2022-12-02T20:08:06.097Z,18.70
2022-12-02T20:10:34.949Z,17.50
2022-12-02T20:13:03.171Z,18.00
2022-12-02T20:15:32.114Z,17.30
2022-12-02T20:18:00.291Z,17.40
2022-12-02T20:20:29.285Z,18.50
2022-12-02T20:22:57.656Z,18.20
2022-12-02T20:25:25.634Z,18.00
2022-12-02T20:27:54.840Z,18.90
2022-12-02T20:30:23.513Z,18.60
2022-12-02T20:32:52.376Z,17.20
2022-12-02T20:35:21.604Z,18.30
2022-12-02T20:37:50.175Z,18.40
2022-12-02T20:40:20.422Z,17.50
2022-12-02T20:42:49.492Z,18.00
2022-12-02T20:45:18.907Z,18.80
2022-12-02T20:47:49.015Z,22.60
2022-12-02T20:50:17.080Z,19.50
2022-12-02T20:52:53.169Z,18.10
2022-12-02T20:55:24.215Z,17.80
2022-12-02T20:57:53.383Z,17.00
2022-12-02T21:00:25.961Z,16.50
2022-12-02T21:02:58.540Z,16.10
2022-12-02T21:05:26.801Z,17.00
2022-12-02T21:07:55.566Z,18.30
2022-12-02T21:10:24.892Z,16.60
2022-12-02T21:12:57.382Z,17.80
2022-12-02T21:15:30.261Z,18.30
2022-12-02T21:17:59.353Z,17.90
2022-12-02T21:20:28.517Z,17.30
2022-12-02T21:22:59.910Z,19.30
2022-12-02T21:25:29.312Z,17.30
2022-12-02T21:27:57.866Z,17.20
2022-12-02T21:30:26.150Z,16.50
2022-12-02T21:32:54.826Z,15.50
2022-12-02T21:35:24.861Z,16.10
2022-12-02T21:37:52.920Z,14.80
2022-12-02T21:40:21.398Z,15.70
2022-12-02T21:42:49.466Z,14.00
2022-12-02T21:45:17.683Z,20.50
2022-12-02T21:47:47.362Z,15.20
2022-12-02T21:50:15.724Z,20.60
2022-12-02T21:52:46.853Z,16.10
2022-12-02T21:55:18.007Z,15.60
2022-12-02T21:57:46.190Z,17.80
2022-12-02T22:00:15.986Z,17.80
2022-12-02T22:02:43.832Z,16.20
2022-12-02T22:05:12.237Z,15.80
2022-12-02T22:07:40.739Z,15.80
2022-12-02T22:10:16.783Z,17.00
2022-12-02T22:13:12.601Z,16.80
2022-12-02T22:15:41.285Z,18.40
2022-12-02T22:18:11.249Z,18.10
2022-12-02T22:20:41.911Z,19.00
2022-12-02T22:23:10.100Z,17.90
2022-12-02T22:25:38.166Z,17.40
2022-12-02T22:28:06.001Z,16.70
2022-12-02T22:30:34.546Z,17.60
2022-12-02T22:33:03.406Z,18.30
2022-12-02T22:35:32.382Z,18.20
2022-12-02T22:38:00.375Z,18.00
2022-12-02T22:40:28.639Z,20.10
2022-12-02T22:42:56.510Z,19.90
2022-12-02T22:45:24.371Z,22.30
2022-12-02T22:47:52.235Z,22.20
2022-12-02T22:50:20.619Z,22.90
2022-12-02T22:52:48.981Z,23.30
2022-12-02T22:55:17.061Z,23.80
2022-12-02T22:57:45.235Z,22.50
2022-12-02T23:00:14.825Z,24.20
2022-12-02T23:02:42.842Z,23.80
2022-12-02T23:05:11.142Z,23.40
2022-12-02T23:07:39.294Z,22.90
2022-12-02T23:10:07.844Z,23.50
2022-12-02T23:12:36.315Z,22.70
2022-12-02T23:15:34.553Z,21.20
2022-12-02T23:17:52.117Z,24.00
2022-12-02T23:20:19.852Z,22.90
2022-12-02T23:22:47.645Z,20.90
2022-12-02T23:25:16.852Z,22.10
2022-12-02T23:27:45.015Z,21.90
2022-12-02T23:30:12.931Z,22.00
2022-12-02T23:32:40.683Z,21.20
2022-12-02T23:35:09.329Z,20.70
2022-12-02T23:37:37.093Z,22.30
2022-12-02T23:40:05.468Z,21.50
2022-12-02T23:42:37.935Z,21.70
2022-12-02T23:45:06.845Z,21.70
2022-12-02T23:47:34.624Z,21.80
2022-12-02T23:50:02.869Z,21.60
2022-12-02T23:52:30.748Z,20.20
2022-12-02T23:54:58.530Z,21.70
2022-12-02T23:57:26.583Z,20.80
2022-12-02T23:59:54.434Z,20.50
